createdAt,value
2018-05-03T00:02:19.634Z,71.60
2018-05-03T00:05:42.829Z,71.50
2018-05-03T00:09:05.274Z,71.40
2018-05-03T00:12:28.482Z,71.60
2018-05-03T00:15:50.920Z,71.50
2018-05-03T00:19:13.366Z,71.80
2018-05-03T00:22:35.825Z,71.90
2018-05-03T00:25:58.270Z,71.90
2018-05-03T00:29:20.718Z,71.90
2018-05-03T00:32:43.161Z,71.60
2018-05-03T00:36:06.361Z,71.50
2018-05-03T00:39:28.802Z,71.50
2018-05-03T00:42:52.031Z,71.50
2018-05-03T00:46:14.460Z,71.50
2018-05-03T00:49:36.911Z,71.50
2018-05-03T00:53:00.109Z,72.10
2018-05-03T00:56:22.558Z,72.10
2018-05-03T00:59:45.780Z,72.30
2018-05-03T01:03:08.226Z,72.20
2018-05-03T01:06:30.663Z,72.50
2018-05-03T01:09:53.106Z,72.50
2018-05-03T01:13:15.553Z,72.50
2018-05-03T01:16:37.998Z,72.20
2018-05-03T01:20:00.446Z,72.40
2018-05-03T01:23:22.914Z,72.30
2018-05-03T01:26:45.355Z,72.00
2018-05-03T01:30:08.563Z,72.40
2018-05-03T01:33:31.003Z,71.80
2018-05-03T01:36:54.214Z,71.70
2018-05-03T01:40:16.649Z,71.50
2018-05-03T01:43:39.869Z,71.00
2018-05-03T01:47:02.308Z,71.60
2018-05-03T01:50:25.505Z,70.80
2018-05-03T01:53:47.947Z,70.70
2018-05-03T01:57:11.155Z,70.80
2018-05-03T02:00:33.594Z,70.70
2018-05-03T02:03:56.803Z,71.00
2018-05-03T02:07:19.245Z,71.00
2018-05-03T02:10:42.445Z,71.40
2018-05-03T02:14:04.890Z,71.30
2018-05-03T02:17:28.121Z,71.50
2018-05-03T02:20:50.550Z,71.50
2018-05-03T02:24:13.757Z,72.00
2018-05-03T02:27:36.201Z,72.00
2018-05-03T02:30:59.397Z,72.40
2018-05-03T02:34:21.842Z,72.40
2018-05-03T02:37:45.058Z,72.80
2018-05-03T02:41:07.499Z,72.70
2018-05-03T02:44:29.949Z,72.80
2018-05-03T02:47:53.150Z,72.90
2018-05-03T02:51:15.591Z,72.90
2018-05-03T02:54:38.811Z,72.90
2018-05-03T02:58:18.125Z,72.90
2018-05-03T03:02:16.532Z,73.00
2018-05-03T03:05:52.628Z,72.90
2018-05-03T03:09:32.619Z,72.70
2018-05-03T03:17:22.490Z,72.50
2018-05-03T03:21:02.542Z,72.50
2018-05-03T03:24:38.762Z,72.40
2018-05-03T03:28:18.756Z,72.50
2018-05-03T03:31:59.106Z,72.50
2018-05-03T03:39:42.646Z,72.60
2018-05-03T03:43:05.144Z,72.60
2018-05-03T03:46:28.289Z,72.60
2018-05-03T03:49:50.747Z,72.60
2018-05-03T03:53:13.241Z,72.70
2018-05-03T03:56:36.384Z,72.60
2018-05-03T03:59:58.821Z,72.40
2018-05-03T04:03:21.270Z,72.70
2018-05-03T04:06:43.719Z,72.60
2018-05-03T04:10:06.151Z,72.60
2018-05-03T04:13:28.591Z,72.70
2018-05-03T04:16:51.850Z,72.20
2018-05-03T04:20:30.014Z,72.20
2018-05-03T04:24:13.982Z,71.60
2018-05-03T04:27:36.514Z,71.60
2018-05-03T04:30:58.975Z,71.00
2018-05-03T04:34:21.504Z,71.40
2018-05-03T04:37:44.702Z,71.60
2018-05-03T04:41:07.190Z,71.50
2018-05-03T04:44:29.635Z,71.50
2018-05-03T04:47:52.090Z,71.20
2018-05-03T04:51:14.528Z,71.20
2018-05-03T04:54:37.763Z,70.60
2018-05-03T04:58:00.894Z,70.50
2018-05-03T05:01:24.158Z,70.40
2018-05-03T05:04:46.685Z,70.30
2018-05-03T05:08:09.046Z,70.70
2018-05-03T05:11:31.472Z,70.00
2018-05-03T05:14:54.678Z,69.50
2018-05-03T05:18:17.122Z,69.50
2018-05-03T05:21:40.326Z,69.50
2018-05-03T05:25:02.774Z,69.50
2018-05-03T05:28:25.980Z,69.40
2018-05-03T05:31:48.420Z,69.30
2018-05-03T05:35:11.625Z,68.90
2018-05-03T05:38:34.124Z,68.90
2018-05-03T05:41:57.279Z,69.00
2018-05-03T05:45:19.707Z,68.90
2018-05-03T05:48:42.919Z,68.20
2018-05-03T05:52:05.350Z,68.20
2018-05-03T05:55:28.558Z,67.60
2018-05-03T05:58:51.002Z,67.50
2018-05-03T06:02:14.206Z,67.80
2018-05-03T06:05:36.653Z,67.80
2018-05-03T06:08:59.860Z,67.80
2018-05-03T06:12:22.331Z,67.80
2018-05-03T06:15:45.507Z,67.50
2018-05-03T06:19:07.946Z,67.40
2018-05-03T06:22:31.146Z,67.10
2018-05-03T06:25:53.641Z,67.00
2018-05-03T06:29:16.794Z,66.20
2018-05-03T06:32:39.236Z,66.20
2018-05-03T06:36:02.447Z,66.00
2018-05-03T06:39:24.894Z,66.00
2018-05-03T06:42:48.094Z,65.90
2018-05-03T06:46:10.541Z,65.70
2018-05-03T06:49:33.753Z,66.20
2018-05-03T06:52:56.185Z,65.40
2018-05-03T06:56:19.399Z,65.10
2018-05-03T06:59:41.839Z,65.00
2018-05-03T07:03:05.050Z,63.60
2018-05-03T07:06:27.490Z,63.50
2018-05-03T07:09:49.948Z,63.50
2018-05-03T07:13:12.362Z,63.20
2018-05-03T07:16:34.814Z,63.10
2018-05-03T07:19:57.253Z,62.20
2018-05-03T07:23:19.687Z,61.30
2018-05-03T07:26:42.147Z,61.90
2018-05-03T07:30:04.582Z,61.40
2018-05-03T07:33:27.024Z,61.60
2018-05-03T07:36:49.478Z,59.70
2018-05-03T07:40:11.917Z,59.30
2018-05-03T07:43:34.360Z,59.90
2018-05-03T07:46:56.882Z,59.40
2018-05-03T07:50:19.305Z,59.10
2018-05-03T07:53:41.751Z,57.70
2018-05-03T07:57:04.241Z,56.40
2018-05-03T08:00:27.461Z,55.80
2018-05-03T08:03:49.906Z,55.60
2018-05-03T08:07:13.106Z,55.60
2018-05-03T08:10:35.558Z,55.60
2018-05-03T08:13:58.757Z,55.10
2018-05-03T08:17:21.194Z,55.00
2018-05-03T08:20:44.402Z,54.70
2018-05-03T08:24:06.841Z,54.10
2018-05-03T08:27:30.049Z,53.60
2018-05-03T08:30:52.504Z,53.60
2018-05-03T08:34:14.952Z,52.90
2018-05-03T08:37:38.163Z,51.20
2018-05-03T08:41:00.598Z,51.10
2018-05-03T08:44:23.809Z,51.30
2018-05-03T08:47:46.249Z,51.30
2018-05-03T08:51:09.462Z,50.50
2018-05-03T08:54:32.024Z,50.50
2018-05-03T08:57:54.459Z,51.30
2018-05-03T09:01:17.678Z,51.10
2018-05-03T09:04:40.113Z,51.10
2018-05-03T09:08:03.322Z,51.40
2018-05-03T09:11:25.765Z,51.40
2018-05-03T09:14:48.973Z,50.70
2018-05-03T09:18:11.411Z,50.70
2018-05-03T09:21:34.625Z,51.40
2018-05-03T09:24:57.077Z,51.40
2018-05-03T09:28:19.502Z,51.70
2018-05-03T09:31:41.957Z,52.30
2018-05-03T09:35:04.389Z,52.40
2018-05-03T09:38:26.829Z,52.60
2018-05-03T09:41:49.299Z,53.10
2018-05-03T09:45:11.745Z,53.60
2018-05-03T09:48:35.021Z,53.70
2018-05-03T09:51:57.393Z,53.70
2018-05-03T09:55:20.602Z,53.30
2018-05-03T09:58:43.052Z,53.30
2018-05-03T10:02:06.255Z,53.80
2018-05-03T10:05:28.702Z,53.80
2018-05-03T10:08:51.134Z,53.80
2018-05-03T10:12:13.574Z,53.20
2018-05-03T10:15:36.023Z,53.80
2018-05-03T10:18:58.457Z,54.30
2018-05-03T10:22:20.900Z,53.10
2018-05-03T10:25:44.115Z,53.70
2018-05-03T10:29:06.553Z,53.60
2018-05-03T10:32:29.761Z,51.30
2018-05-03T10:35:52.220Z,51.30
2018-05-03T10:39:15.413Z,53.30
2018-05-03T10:42:37.861Z,53.30
2018-05-03T10:46:00.310Z,52.00
2018-05-03T10:49:23.509Z,48.30
2018-05-03T10:52:45.948Z,48.20
2018-05-03T10:56:08.409Z,46.50
2018-05-03T10:59:30.853Z,45.60
2018-05-03T11:02:53.346Z,46.70
2018-05-03T11:06:15.733Z,45.10
2018-05-03T11:09:38.173Z,43.90
2018-05-03T11:13:01.382Z,44.20
2018-05-03T11:16:23.829Z,44.00
2018-05-03T11:19:47.043Z,43.10
2018-05-03T11:23:09.487Z,43.10
2018-05-03T11:26:32.697Z,42.30
2018-05-03T11:29:55.146Z,42.30
2018-05-03T11:33:17.581Z,41.90
2018-05-03T11:36:40.863Z,42.20
2018-05-03T11:40:03.270Z,42.00
2018-05-03T11:43:25.705Z,43.20
2018-05-03T11:46:48.917Z,44.00
2018-05-03T11:50:11.378Z,44.00
2018-05-03T11:53:33.805Z,44.80
2018-05-03T11:56:57.025Z,46.50
2018-05-03T12:00:19.471Z,46.20
2018-05-03T12:03:42.678Z,46.60
2018-05-03T12:07:05.114Z,46.60
2018-05-03T12:10:28.342Z,48.10
2018-05-03T12:13:50.788Z,48.10
2018-05-03T12:17:13.231Z,48.60
2018-05-03T12:20:36.438Z,48.60
2018-05-03T12:23:58.898Z,48.60
2018-05-03T12:27:21.327Z,48.90
2018-05-03T12:30:43.777Z,50.30
2018-05-03T12:34:06.210Z,50.20
2018-05-03T12:37:28.655Z,48.90
2018-05-03T12:40:51.104Z,48.40
2018-05-03T12:44:14.308Z,46.30
2018-05-03T12:47:36.749Z,46.30
2018-05-03T12:50:59.966Z,47.50
2018-05-03T12:54:22.474Z,47.40
2018-05-03T12:57:44.913Z,47.40
2018-05-03T13:01:08.127Z,48.30
2018-05-03T13:04:30.566Z,48.30
2018-05-03T13:07:53.010Z,49.00
2018-05-03T13:11:15.470Z,50.10
2018-05-03T13:14:37.910Z,49.70
2018-05-03T13:18:01.189Z,50.20
2018-05-03T13:21:24.393Z,51.10
2018-05-03T13:24:46.889Z,51.10
2018-05-03T13:28:09.339Z,52.10
2018-05-03T13:31:31.778Z,52.60
2018-05-03T13:34:56.004Z,52.70
2018-05-03T13:38:18.442Z,53.20
2018-05-03T13:41:40.896Z,53.60
2018-05-03T13:45:04.103Z,54.30
2018-05-03T13:48:26.557Z,54.20
2018-05-03T13:51:49.767Z,55.10
2018-05-03T13:55:12.262Z,55.10
2018-05-03T13:58:34.726Z,55.70
2018-05-03T14:01:57.178Z,56.30
2018-05-03T14:05:19.637Z,56.60
2018-05-03T14:08:42.073Z,57.30
2018-05-03T14:12:04.529Z,57.10
2018-05-03T14:15:27.733Z,57.70
2018-05-03T14:18:50.184Z,57.70
2018-05-03T14:22:12.642Z,57.30
2018-05-03T14:25:35.849Z,57.50
2018-05-03T14:28:58.295Z,57.50
2018-05-03T14:32:20.747Z,56.60
2018-05-03T14:35:43.954Z,57.70
2018-05-03T14:39:06.401Z,57.70
2018-05-03T14:42:29.623Z,57.40
2018-05-03T14:45:52.073Z,57.40
2018-05-03T14:49:14.518Z,57.40
2018-05-03T14:52:36.978Z,57.50
2018-05-03T14:55:59.421Z,57.70
2018-05-03T14:59:22.633Z,58.40
2018-05-03T15:02:45.087Z,58.10
2018-05-03T15:06:08.301Z,59.10
2018-05-03T15:09:30.747Z,59.00
2018-05-03T15:12:53.190Z,58.70
2018-05-03T15:16:16.424Z,58.40
2018-05-03T15:19:38.841Z,58.40
2018-05-03T15:23:02.064Z,58.60
2018-05-03T15:26:24.513Z,58.40
2018-05-03T15:29:46.967Z,57.50
2018-05-03T15:33:09.417Z,58.00
2018-05-03T15:36:32.636Z,59.00
2018-05-03T15:39:55.078Z,58.90
2018-05-03T15:43:17.526Z,58.80
2018-05-03T15:46:40.737Z,59.30
2018-05-03T15:50:03.207Z,59.20
2018-05-03T15:53:26.401Z,59.10
2018-05-03T15:56:48.847Z,59.10
2018-05-03T16:00:11.285Z,59.60
2018-05-03T16:03:34.506Z,59.60
2018-05-03T16:06:56.968Z,59.60
2018-05-03T16:10:19.405Z,59.40
2018-05-03T16:13:42.625Z,59.80
2018-05-03T16:17:05.083Z,59.80
2018-05-03T16:20:27.536Z,59.50
2018-05-03T16:23:49.978Z,59.00
2018-05-03T16:27:13.279Z,59.70
2018-05-03T16:30:35.632Z,59.60
2018-05-03T16:33:58.849Z,59.70
2018-05-03T16:37:21.291Z,59.70
2018-05-03T16:40:43.733Z,59.80
2018-05-03T16:44:07.051Z,59.50
2018-05-03T16:47:29.491Z,59.50
2018-05-03T16:50:52.729Z,59.40
2018-05-03T16:54:15.170Z,59.40
2018-05-03T16:57:37.624Z,59.50
2018-05-03T17:01:00.073Z,59.90
2018-05-03T17:04:23.278Z,59.40
2018-05-03T17:07:45.729Z,59.30
2018-05-03T17:11:08.173Z,59.40
2018-05-03T17:14:31.391Z,59.60
2018-05-03T17:17:53.850Z,59.60
2018-05-03T17:21:16.299Z,59.60
2018-05-03T17:24:39.508Z,59.90
2018-05-03T17:28:01.973Z,59.90
2018-05-03T17:31:24.434Z,60.10
2018-05-03T17:34:46.891Z,60.00
2018-05-03T17:38:09.373Z,60.30
2018-05-03T17:41:31.826Z,60.40
2018-05-03T17:44:54.288Z,60.50
2018-05-03T17:48:16.734Z,60.90
2018-05-03T17:51:40.195Z,61.10
2018-05-03T17:55:02.706Z,61.10
2018-05-03T17:58:25.209Z,60.90
2018-05-03T18:01:47.658Z,61.50
2018-05-03T18:05:10.136Z,61.40
2018-05-03T18:08:32.570Z,61.20
2018-05-03T18:11:55.035Z,61.00
2018-05-03T18:15:17.489Z,61.60
2018-05-03T18:22:26.081Z,62.80
2018-05-03T18:25:48.541Z,62.40
2018-05-03T18:29:11.122Z,62.90
2018-05-03T18:32:33.557Z,63.00
2018-05-03T18:35:56.889Z,63.50
2018-05-03T18:39:19.338Z,63.40
2018-05-03T18:42:41.785Z,63.90
2018-05-03T18:46:05.090Z,64.40
2018-05-03T18:49:27.614Z,64.50
2018-05-03T18:52:50.745Z,65.00
2018-05-03T18:56:13.228Z,65.80
2018-05-03T18:59:35.676Z,65.10
2018-05-03T19:02:58.143Z,65.30
2018-05-03T19:06:20.585Z,65.40
2018-05-03T19:09:43.025Z,65.50
2018-05-03T19:13:06.339Z,65.70
2018-05-03T19:16:28.751Z,65.70
2018-05-03T19:19:51.126Z,66.00
2018-05-03T19:23:13.591Z,66.80
2018-05-03T19:26:35.989Z,66.10
2018-05-03T19:29:58.502Z,66.50
2018-05-03T19:33:20.937Z,66.20
2018-05-03T19:36:43.376Z,66.30
2018-05-03T19:40:06.586Z,66.60
2018-05-03T19:43:29.096Z,66.60
2018-05-03T19:46:51.465Z,66.60
2018-05-03T19:50:13.984Z,66.80
2018-05-03T19:53:36.362Z,66.80
2018-05-03T19:56:58.793Z,66.80
2018-05-03T20:00:21.229Z,66.80
2018-05-03T20:03:43.759Z,66.80
2018-05-03T20:07:06.125Z,66.90
2018-05-03T20:10:28.605Z,66.90
2018-05-03T20:13:51.052Z,66.80
2018-05-03T20:17:13.481Z,66.90
2018-05-03T20:20:35.921Z,66.90
2018-05-03T20:23:58.382Z,67.30
2018-05-03T20:27:20.818Z,68.00
2018-05-03T20:30:43.278Z,67.80
2018-05-03T20:34:05.742Z,68.30
2018-05-03T20:37:28.187Z,68.80
2018-05-03T20:40:50.621Z,68.70
2018-05-03T20:44:13.853Z,69.20
2018-05-03T20:47:36.297Z,69.20
2018-05-03T20:50:58.737Z,69.50
2018-05-03T20:54:21.970Z,69.80
2018-05-03T20:57:44.512Z,69.70
2018-05-03T21:01:06.897Z,70.00
2018-05-03T21:04:29.422Z,70.30
2018-05-03T21:07:51.828Z,70.30
2018-05-03T21:11:14.289Z,70.50
2018-05-03T21:14:36.737Z,70.60
2018-05-03T21:17:59.631Z,71.10
2018-05-03T21:21:22.067Z,71.20
2018-05-03T21:24:44.647Z,71.00
2018-05-03T21:28:07.134Z,71.00
2018-05-03T21:31:29.593Z,70.70
2018-05-03T21:34:52.041Z,71.10
2018-05-03T21:38:14.526Z,71.00
2018-05-03T21:41:37.037Z,71.00
2018-05-03T21:44:59.465Z,71.00
2018-05-03T21:48:22.004Z,71.00
2018-05-03T21:51:44.572Z,71.00
2018-05-03T21:55:07.773Z,71.40
2018-05-03T21:58:30.221Z,71.40
2018-05-03T22:01:52.787Z,71.40
2018-05-03T22:05:15.225Z,71.60
2018-05-03T22:08:38.458Z,71.60
2018-05-03T22:12:00.898Z,71.60
2018-05-03T22:15:23.357Z,71.70
2018-05-03T22:18:46.552Z,71.90
2018-05-03T22:22:08.997Z,71.90
2018-05-03T22:25:31.441Z,71.70
2018-05-03T22:28:54.661Z,72.00
2018-05-03T22:32:17.093Z,72.00
2018-05-03T22:35:40.303Z,71.90
2018-05-03T22:39:02.753Z,71.90
2018-05-03T22:42:25.974Z,71.90
2018-05-03T22:45:48.449Z,71.90
2018-05-03T22:49:10.894Z,71.30
2018-05-03T22:52:33.340Z,71.20
2018-05-03T22:55:55.814Z,71.50
2018-05-03T22:59:19.021Z,71.50
2018-05-03T23:02:41.465Z,71.60
2018-05-03T23:06:03.921Z,71.30
2018-05-03T23:09:26.361Z,71.60
2018-05-03T23:12:49.576Z,71.00
2018-05-03T23:16:12.018Z,71.00
2018-05-03T23:19:35.226Z,70.80
2018-05-03T23:22:57.705Z,70.80
2018-05-03T23:26:20.136Z,70.90
2018-05-03T23:29:42.599Z,71.00
2018-05-03T23:33:05.797Z,71.30
2018-05-03T23:36:28.246Z,71.20
2018-05-03T23:39:51.457Z,71.60
2018-05-03T23:43:13.898Z,71.60
2018-05-03T23:46:36.341Z,71.30
2018-05-03T23:49:59.560Z,71.80
2018-05-03T23:53:21.990Z,71.80
2018-05-03T23:56:45.208Z,72.10
